createdAt,value
2022-08-05T00:01:36.184Z,3.60
2022-08-05T00:04:17.600Z,3.55
2022-08-05T00:06:45.467Z,3.50
2022-08-05T00:09:16.014Z,4.00
2022-08-05T00:11:49.573Z,3.90
2022-08-05T00:14:29.041Z,3.78
2022-08-05T00:16:57.572Z,3.60
2022-08-05T00:19:33.790Z,3.90
2022-08-05T00:22:11.781Z,3.15
2022-08-05T00:24:42.270Z,3.63
2022-08-05T00:27:16.662Z,3.50
2022-08-05T00:29:44.578Z,4.00
2022-08-05T00:32:15.318Z,3.50
2022-08-05T00:35:05.230Z,4.10
2022-08-05T00:37:50.751Z,4.32
2022-08-05T00:40:27.390Z,3.78
2022-08-05T00:42:58.538Z,4.38
2022-08-05T00:45:37.797Z,3.72
2022-08-05T00:48:13.935Z,3.63
2022-08-05T00:50:44.368Z,3.63
2022-08-05T00:53:45.122Z,3.90
2022-08-05T00:56:05.530Z,3.42
2022-08-05T00:58:35.891Z,3.47
2022-08-05T01:01:06.028Z,3.88
2022-08-05T01:06:05.640Z,3.88
2022-08-05T01:08:43.295Z,3.95
2022-08-05T01:11:22.100Z,3.47
2022-08-05T01:14:00.041Z,3.88
2022-08-05T01:16:56.878Z,3.45
2022-08-05T01:19:56.288Z,3.55
2022-08-05T01:22:43.283Z,3.85
2022-08-05T01:25:54.621Z,3.50
2022-08-05T01:28:35.619Z,3.80
2022-08-05T01:31:29.961Z,3.55
2022-08-05T01:34:15.450Z,4.05
2022-08-05T01:37:02.209Z,3.80
2022-08-05T01:39:45.841Z,3.65
2022-08-05T01:42:17.425Z,3.70
2022-08-05T01:44:54.078Z,4.20
2022-08-05T01:47:24.413Z,3.90
2022-08-05T01:50:15.161Z,3.83
2022-08-05T01:52:49.758Z,4.40
2022-08-05T01:55:22.446Z,4.05
2022-08-05T02:00:45.850Z,4.35
2022-08-05T02:03:31.353Z,3.88
2022-08-05T02:06:03.631Z,4.03
2022-08-05T02:08:57.801Z,4.28
2022-08-05T02:11:53.966Z,3.75
2022-08-05T02:14:33.284Z,4.07
2022-08-05T02:17:17.046Z,4.35
2022-08-05T02:20:03.921Z,4.53
2022-08-05T02:22:41.856Z,3.80
2022-08-05T02:25:22.219Z,4.10
2022-08-05T02:27:59.128Z,4.03
2022-08-05T02:30:35.047Z,4.10
2022-08-05T02:33:04.764Z,4.45
2022-08-05T02:35:38.592Z,4.00
2022-08-05T02:38:21.397Z,4.40
2022-08-05T02:40:56.028Z,4.22
2022-08-05T02:43:26.654Z,4.00
2022-08-05T02:45:55.038Z,4.30
2022-08-05T02:48:29.104Z,3.85
2022-08-05T02:51:00.985Z,3.88
2022-08-05T02:53:39.050Z,3.88
2022-08-05T02:56:15.965Z,4.00
2022-08-05T02:58:52.611Z,4.70
2022-08-05T03:01:25.613Z,4.00
2022-08-05T03:04:13.967Z,4.18
2022-08-05T03:06:54.061Z,4.30
2022-08-05T03:09:38.083Z,5.43
2022-08-05T03:12:10.679Z,4.35
2022-08-05T03:14:45.958Z,4.60
2022-08-05T03:17:15.299Z,3.72
2022-08-05T03:19:42.418Z,3.95
2022-08-05T03:22:16.036Z,4.10
2022-08-05T03:24:51.053Z,4.57
2022-08-05T03:27:20.704Z,4.28
2022-08-05T03:30:08.565Z,4.10
2022-08-05T03:32:37.938Z,3.97
2022-08-05T03:35:06.264Z,4.28
2022-08-05T03:37:46.770Z,4.22
2022-08-05T03:40:31.185Z,4.13
2022-08-05T03:42:59.551Z,4.10
2022-08-05T03:45:57.662Z,4.07
2022-08-05T03:48:30.122Z,4.50
2022-08-05T03:52:36.628Z,4.35
2022-08-05T03:55:52.151Z,5.10
2022-08-05T03:57:35.132Z,5.20
2022-08-05T04:00:15.872Z,4.28
2022-08-05T04:02:58.753Z,4.57
2022-08-05T04:05:34.477Z,4.18
2022-08-05T04:08:30.119Z,4.50
2022-08-05T04:10:58.721Z,4.18
2022-08-05T04:13:27.863Z,4.78
2022-08-05T04:16:14.586Z,4.15
2022-08-05T04:18:41.772Z,4.13
2022-08-05T04:21:10.960Z,4.80
2022-08-05T04:24:05.200Z,3.90
2022-08-05T04:26:26.667Z,4.18
2022-08-05T04:29:07.491Z,3.95
2022-08-05T04:31:38.736Z,4.38
2022-08-05T04:34:18.905Z,4.55
2022-08-05T04:36:54.453Z,3.80
2022-08-05T04:39:24.253Z,4.88
2022-08-05T04:41:55.429Z,4.88
2022-08-05T04:44:29.347Z,4.30
2022-08-05T04:47:09.505Z,4.57
2022-08-05T04:50:02.046Z,5.07
2022-08-05T04:52:27.770Z,4.35
2022-08-05T04:54:57.026Z,3.65
2022-08-05T04:57:28.759Z,3.97
2022-08-05T04:59:58.552Z,3.92
2022-08-05T05:02:36.541Z,4.82
2022-08-05T05:05:26.577Z,4.20
2022-08-05T05:08:01.758Z,4.07
2022-08-05T05:10:33.446Z,3.97
2022-08-05T05:13:01.683Z,3.90
2022-08-05T05:15:59.427Z,3.95
2022-08-05T05:18:31.203Z,4.00
2022-08-05T05:21:03.261Z,4.60
2022-08-05T05:23:39.127Z,3.95
2022-08-05T05:26:17.998Z,4.72
2022-08-05T05:28:45.415Z,4.05
2022-08-05T05:31:13.368Z,3.97
2022-08-05T05:33:59.564Z,4.18
2022-08-05T05:36:28.788Z,3.97
2022-08-05T05:38:57.312Z,4.32
2022-08-05T05:41:24.900Z,4.22
2022-08-05T05:43:57.662Z,4.10
2022-08-05T05:46:26.516Z,4.05
2022-08-05T05:48:53.672Z,5.00
2022-08-05T05:51:27.758Z,4.22
2022-08-05T05:53:59.627Z,3.83
2022-08-05T05:56:34.420Z,3.47
2022-08-05T05:59:05.448Z,3.95
2022-08-05T06:01:38.145Z,3.70
2022-08-05T06:04:12.721Z,3.95
2022-08-05T06:06:47.759Z,4.18
2022-08-05T06:09:26.641Z,4.28
2022-08-05T06:12:04.142Z,5.32
2022-08-05T06:14:32.420Z,4.38
2022-08-05T06:17:01.956Z,3.85
2022-08-05T06:19:57.210Z,4.20
2022-08-05T06:22:33.762Z,3.53
2022-08-05T06:25:59.040Z,4.22
2022-08-05T06:28:10.447Z,3.92
2022-08-05T06:30:40.437Z,3.75
2022-08-05T06:33:09.907Z,3.95
2022-08-05T06:36:04.175Z,3.92
2022-08-05T06:38:35.576Z,3.35
2022-08-05T06:41:04.899Z,2.90
2022-08-05T06:43:57.478Z,3.08
2022-08-05T06:46:19.688Z,3.55
2022-08-05T06:48:55.770Z,3.03
2022-08-05T06:51:30.100Z,3.10
2022-08-05T06:54:48.752Z,2.97
2022-08-05T06:58:03.044Z,3.10
2022-08-05T07:00:47.846Z,3.03
2022-08-05T07:03:32.921Z,3.08
2022-08-05T07:06:20.616Z,3.05
2022-08-05T07:08:53.195Z,3.20
2022-08-05T07:11:28.097Z,3.15
2022-08-05T07:14:20.388Z,4.00
2022-08-05T07:17:59.947Z,3.22
2022-08-05T07:20:31.463Z,3.63
2022-08-05T07:22:55.655Z,3.58
2022-08-05T07:25:56.058Z,3.92
2022-08-05T07:28:17.208Z,4.03
2022-08-05T07:30:44.573Z,4.32
2022-08-05T07:33:17.463Z,4.47
2022-08-05T07:36:04.000Z,4.65
2022-08-05T07:38:43.140Z,4.60
2022-08-05T07:42:13.588Z,5.20
2022-08-05T07:44:19.291Z,4.53
2022-08-05T07:46:49.679Z,4.70
2022-08-05T07:49:18.809Z,5.05
2022-08-05T07:51:53.591Z,4.30
2022-08-05T07:54:30.405Z,3.88
2022-08-05T07:57:13.863Z,4.95
2022-08-05T07:59:46.979Z,4.00
2022-08-05T08:02:17.903Z,4.53
2022-08-05T08:04:46.674Z,4.05
2022-08-05T08:07:22.274Z,4.40
2022-08-05T08:09:53.149Z,3.92
2022-08-05T08:12:35.157Z,4.70
2022-08-05T08:15:15.100Z,3.67
2022-08-05T08:17:49.914Z,4.97
2022-08-05T08:21:00.312Z,4.40
2022-08-05T08:24:00.400Z,3.80
2022-08-05T08:26:00.561Z,3.75
2022-08-05T08:28:35.550Z,4.33
2022-08-05T08:31:06.606Z,4.13
2022-08-05T08:33:38.395Z,4.40
2022-08-05T08:36:38.495Z,4.47
2022-08-05T08:38:56.924Z,4.38
2022-08-05T08:41:51.078Z,4.07
2022-08-05T08:45:19.238Z,4.57
2022-08-05T08:47:34.591Z,4.18
2022-08-05T08:50:30.381Z,3.97
2022-08-05T08:53:00.922Z,4.18
2022-08-05T08:56:02.163Z,4.28
2022-08-05T08:58:17.193Z,4.43
2022-08-05T09:00:45.568Z,4.38
2022-08-05T09:03:16.246Z,4.30
2022-08-05T09:06:07.765Z,3.58
2022-08-05T09:08:35.332Z,4.20
2022-08-05T09:11:08.845Z,4.18
2022-08-05T09:14:10.314Z,4.25
2022-08-05T09:16:33.169Z,4.30
2022-08-05T09:19:01.511Z,4.18
2022-08-05T09:22:22.998Z,3.70
2022-08-05T09:24:25.694Z,3.88
2022-08-05T09:26:58.790Z,4.10
2022-08-05T09:29:47.903Z,3.95
2022-08-05T09:32:40.771Z,3.67
2022-08-05T09:35:26.715Z,4.13
2022-08-05T09:38:12.829Z,3.97
2022-08-05T09:40:52.558Z,4.35
2022-08-05T09:43:40.549Z,4.13
2022-08-05T09:46:51.668Z,3.95
2022-08-05T09:49:54.386Z,4.00
2022-08-05T09:52:36.203Z,4.43
2022-08-05T09:55:56.084Z,4.25
2022-08-05T09:58:00.305Z,4.25
2022-08-05T10:00:29.739Z,4.75
2022-08-05T10:02:59.036Z,4.22
2022-08-05T10:05:32.669Z,4.38
2022-08-05T10:08:37.228Z,3.92
2022-08-05T10:11:35.182Z,4.18
2022-08-05T10:15:25.727Z,3.63
2022-08-05T10:18:35.618Z,4.45
2022-08-05T10:21:24.556Z,4.30
2022-08-05T11:04:53.067Z,5.00
2022-08-05T13:20:54.231Z,1.92
2022-08-05T13:24:51.207Z,2.10
2022-08-05T13:28:06.223Z,2.47
2022-08-05T13:30:38.954Z,2.15
2022-08-05T13:37:07.101Z,1.90
2022-08-05T13:40:49.900Z,2.10
2022-08-05T13:43:44.852Z,2.30
2022-08-05T13:46:30.816Z,2.45
2022-08-05T13:49:10.121Z,2.20
2022-08-05T13:51:46.451Z,2.28
2022-08-05T13:54:24.935Z,2.05
2022-08-05T13:57:04.983Z,2.03
2022-08-05T13:59:37.375Z,2.20
2022-08-05T14:02:26.600Z,1.80
2022-08-05T14:05:15.358Z,1.92
2022-08-05T14:07:59.616Z,2.25
2022-08-05T14:10:33.422Z,2.10
2022-08-05T14:13:00.581Z,2.25
2022-08-05T14:16:04.816Z,1.95
2022-08-05T14:18:24.108Z,1.85
2022-08-05T14:20:55.024Z,1.65
2022-08-05T14:23:37.289Z,1.80
2022-08-05T14:26:11.137Z,2.05
2022-08-05T14:28:58.112Z,2.03
2022-08-05T14:31:54.281Z,2.50
2022-08-05T14:34:17.257Z,1.90
2022-08-05T14:40:24.703Z,2.28
2022-08-05T14:42:52.672Z,2.15
2022-08-05T14:45:23.088Z,2.08
2022-08-05T14:48:05.505Z,2.30
2022-08-05T14:50:44.151Z,1.80
2022-08-05T14:53:29.854Z,1.98
2022-08-05T14:56:11.400Z,1.95
2022-08-05T14:59:11.757Z,1.80
2022-08-05T15:04:47.794Z,1.77
2022-08-05T15:08:08.515Z,1.63
2022-08-05T15:10:28.843Z,1.85
2022-08-05T15:13:10.239Z,1.70
2022-08-05T15:16:06.152Z,2.00
2022-08-05T15:18:40.545Z,1.63
2022-08-05T15:21:13.954Z,2.10
2022-08-05T15:23:41.140Z,1.60
2022-08-05T15:26:08.340Z,2.00
2022-08-05T15:28:36.066Z,1.60
2022-08-05T15:31:10.675Z,1.52
2022-08-05T15:34:05.291Z,1.83
2022-08-05T15:36:25.827Z,1.85
2022-08-05T15:40:41.452Z,1.70
2022-08-05T15:41:57.570Z,2.10
2022-08-05T15:44:30.326Z,1.98
2022-08-05T15:46:59.329Z,2.03
2022-08-05T15:49:40.814Z,2.08
2022-08-05T15:52:16.302Z,1.92
2022-08-05T15:54:45.002Z,1.75
2022-08-05T15:57:14.313Z,1.83
2022-08-05T15:59:43.359Z,2.10
2022-08-05T16:02:14.822Z,1.90
2022-08-05T16:04:47.299Z,2.00
2022-08-05T16:07:14.486Z,2.03
2022-08-05T16:09:42.224Z,1.98
2022-08-05T16:12:11.482Z,2.22
2022-08-05T16:14:39.238Z,2.00
2022-08-05T16:17:06.337Z,2.13
2022-08-05T16:21:58.818Z,3.08
2022-08-05T16:23:53.909Z,1.90
2022-08-05T16:27:07.366Z,2.08
2022-08-05T16:33:28.220Z,2.10
2022-08-05T16:47:40.809Z,2.10
2022-08-05T16:53:12.612Z,2.20
2022-08-05T17:09:25.799Z,2.30
2022-08-05T17:12:22.776Z,2.67
2022-08-05T17:15:07.666Z,2.67
2022-08-05T17:17:42.804Z,2.70
2022-08-05T17:20:14.647Z,2.60
2022-08-05T17:22:42.413Z,2.15
2022-08-05T17:25:33.388Z,2.28
2022-08-05T17:27:59.291Z,2.55
2022-08-05T17:30:28.931Z,2.55
2022-08-05T17:32:56.691Z,2.40
2022-08-05T17:35:24.053Z,1.95
2022-08-05T17:37:51.937Z,1.83
2022-08-05T17:40:22.465Z,1.80
2022-08-05T17:42:52.945Z,2.17
2022-08-05T17:45:25.053Z,1.92
2022-08-05T17:47:57.673Z,2.22
2022-08-05T17:50:30.416Z,2.83
2022-08-05T17:53:01.139Z,3.35
2022-08-05T17:55:34.299Z,2.42
2022-08-05T17:58:11.157Z,2.72
2022-08-05T18:00:45.028Z,2.60
2022-08-05T18:03:59.683Z,2.22
2022-08-05T18:06:11.853Z,2.38
2022-08-05T18:08:44.719Z,2.33
2022-08-05T18:11:24.113Z,2.10
2022-08-05T18:14:01.186Z,2.70
2022-08-05T18:16:51.402Z,2.50
2022-08-05T18:19:22.891Z,2.42
2022-08-05T18:22:09.354Z,3.10
2022-08-05T18:24:39.977Z,3.17
2022-08-05T18:33:00.303Z,3.63
2022-08-05T18:41:55.403Z,3.83
2022-08-05T18:44:34.952Z,5.50
2022-08-05T18:47:15.602Z,5.50
2022-08-05T18:50:01.026Z,5.10
2022-08-05T18:52:33.612Z,5.50
2022-08-05T18:55:06.629Z,5.85
2022-08-05T18:57:43.179Z,5.55
2022-08-05T19:00:20.697Z,4.82
2022-08-05T19:02:53.116Z,5.40
2022-08-05T19:06:05.749Z,5.65
2022-08-05T19:08:13.433Z,5.80
2022-08-05T19:10:42.547Z,5.55
2022-08-05T19:13:12.324Z,5.78
2022-08-05T19:28:49.504Z,6.88
2022-08-05T19:49:03.086Z,5.07
2022-08-05T20:00:05.887Z,4.18
2022-08-05T20:20:56.968Z,2.58
2022-08-05T20:24:46.969Z,2.22
2022-08-05T20:32:51.786Z,1.90
2022-08-05T20:44:38.212Z,1.70
2022-08-05T20:48:30.701Z,1.27
2022-08-05T21:08:58.007Z,1.20
2022-08-05T21:13:11.145Z,1.38
2022-08-05T21:20:04.309Z,1.02
2022-08-05T21:28:51.185Z,1.00
2022-08-05T21:39:26.887Z,1.40
2022-08-05T21:43:27.831Z,1.00
2022-08-05T21:56:06.068Z,1.10
2022-08-05T22:18:25.845Z,1.20
2022-08-05T22:22:51.256Z,1.23
2022-08-05T22:42:09.664Z,1.02
2022-08-05T22:44:19.300Z,1.15
2022-08-05T22:46:46.669Z,1.23
2022-08-05T22:50:17.611Z,1.20
2022-08-05T22:52:15.414Z,1.40
2022-08-05T22:55:56.530Z,1.20
2022-08-05T22:58:28.310Z,1.60
2022-08-05T23:01:23.244Z,1.65
2022-08-05T23:56:27.212Z,2.00
